• Join FlightAware (Why Join?)
  • Login
  • US Flag 
01:36AM EDT


 

Airport Tracker/Info


-or-


 

Live Flight TrackerFlight Track Log ✈ FLG3429 ✈ 16-Jul-2013 ✈ KJFK - KJAX

Flight Track Log - Related Links

Times and Time Zones

All times are in EDT time to prevent confusion due to time zone crossing. See the FLG3429 flight status page for this flight to view local times or setup timezone preferences in your user account.

Time Position Orientation Groundspeed Altitude Reporting Facility
EDT Latitude Longitude Course Direction KTS MPH feet Rate Location/Type
09:04PM 40.6500 -73.8167 223° Southwest 175 201 900  Level New York TRACON
09:06PM 40.5792 -73.7958 167° South 116 133 4,900 2,040 Climbing New York Center
09:07PM 40.2569 -73.4139 123° Southeast  Level FlightAware Approximate
09:07PM 40.5603 -73.7214 108° East 184 212 7,200  Level New York Center
09:08PM 40.1625 -73.3203 146° Southeast  Level FlightAware Approximate
09:08PM 40.4994 -73.6506 138° Southeast 241 277 9,300  Level New York Center
09:09PM 40.0660 -73.2709 223° Southwest  Level FlightAware Approximate
09:09PM 40.4283 -73.5819 144° Southeast 308 354 10,500  Level New York Center
09:10PM 40.3489 -73.5053 144° Southeast 343 395 12,000 1,800 Climbing New York Center
09:11PM 40.2631 -73.4256 145° Southeast 369 425 14,200 1,800 Climbing New York Center
09:12PM 40.1650 -73.4328 183° South 350 403 15,700 1,620 Climbing New York Center
09:13PM 40.0736 -73.5106 213° Southwest 370 426 17,400 1,380 Climbing New York Center
09:15PM 39.8936 -73.6497 211° Southwest 409 471 19,800 1,260 Climbing Washington Center
09:16PM 39.7928 -73.7256 210° Southwest 416 479 21,200 1,320 Climbing Washington Center
09:17PM 39.6939 -73.8008 210° Southwest 416 479 22,500 840 Climbing Washington Center
09:18PM 39.5908 -73.8817 211° Southwest 423 487 23,000 660 Climbing Washington Center
09:19PM 39.4817 -73.9647 210° Southwest 441 507 23,900 1,140 Climbing Washington Center
09:20PM 39.3786 -74.0558 214° Southwest 454 522 25,300 1,380 Climbing Washington Center
09:21PM 39.2839 -74.1597 220° Southwest 459 528 26,700 1,080 Climbing Washington Center
09:22PM 39.1850 -74.2633 219° Southwest 454 522 27,600 780 Climbing Washington Center
09:23PM 39.0861 -74.3694 220° Southwest 461 531 28,400 840 Climbing Washington Center
09:24PM 38.9831 -74.4647 216° Southwest 471 542 29,300 1,080 Climbing Washington Center
09:25PM 38.8756 -74.5625 215° Southwest 471 542 30,600 1,560 Climbing Washington Center
09:26PM 38.7761 -74.6517 215° Southwest 471 542 32,500 1,260 Climbing Washington Center
09:27PM 38.6725 -74.7461 215° Southwest 465 535 33,200 840 Climbing Washington Center
09:28PM 38.5711 -74.8350 214° Southwest 460 529 34,200 960 Climbing Washington Center
09:29PM 38.4694 -74.9289 216° Southwest 460 529 35,200 900 Climbing Washington Center
09:30PM 38.3697 -75.0197 216° Southwest 449 517 36,000 360 Climbing Washington Center
09:31PM 38.2722 -75.1078 215° Southwest 449 517 36,000  Level Washington Center
09:32PM 38.1619 -75.1772 206° Southwest 449 517 36,000  Level Washington Center
09:33PM 38.0411 -75.1964 187° South 438 504 36,000  Level Washington Center
09:34PM 37.9161 -75.2153 187° South 443 510 36,000  Level Washington Center
09:35PM 37.7889 -75.2450 190° South 458 527 36,000  Level Washington Center
09:36PM 37.6639 -75.2744 191° South 463 533 36,000  Level Washington Center
09:37PM 37.5386 -75.3064 191° South 468 539 36,000  Level Washington Center
09:38PM 37.4158 -75.3539 197° South 463 533 36,000  Level Washington Center
09:39PM 37.2950 -75.4039 198° South 463 533 36,000  Level Washington Center
09:40PM 37.1761 -75.4511 198° South 458 527 36,000  Level Washington Center
09:41PM 37.0550 -75.5008 198° South 458 527 36,000  Level Washington Center
09:42PM 36.9342 -75.5478 197° South 458 527 36,000  Level Washington Center
09:43PM 36.8236 -75.6283 210° Southwest 458 527 36,000  Level Washington Center
09:44PM 36.7192 -75.7189 215° Southwest 458 527 36,000  Level Washington Center
09:45PM 36.6086 -75.8094 213° Southwest 469 540 36,000  Level Washington Center
09:46PM 36.4997 -75.9047 215° Southwest 474 545 36,000  Level Washington Center
09:47PM 36.3764 -75.9867 208° Southwest 474 545 36,000  Level Washington Center
09:48PM 36.2511 -76.0144 190° South 453 521 36,000  Level Washington Center
09:49PM 36.1444 -76.1039 214° Southwest 453 521 36,000  Level Washington Center
09:50PM 36.0481 -76.2164 223° Southwest 467 537 36,000 -60 Level Washington Center
09:51PM 35.9533 -76.3336 225° Southwest 472 543 35,900  Descending Washington Center
09:52PM 35.8672 -76.4456 227° Southwest 472 543 36,000  Climbing Washington Center
09:53PM 35.7744 -76.5622 226° Southwest 472 543 36,000  Level Washington Center
09:54PM 35.6817 -76.6839 227° Southwest 477 549 36,000  Level Washington Center
09:55PM 35.5886 -76.8003 226° Southwest 477 549 36,000  Level Washington Center
09:56PM 35.5083 -76.9061 227° Southwest 466 536 36,000  Level Washington Center
09:57PM 35.4150 -77.0244 226° Southwest 477 549 36,000  Level Washington Center
09:58PM 35.3178 -77.1422 225° Southwest 482 555 36,000  Level Washington Center
09:59PM 35.2222 -77.2600 225° Southwest 482 555 36,000  Level Washington Center
10:00PM 35.1286 -77.3800 226° Southwest 487 560 36,000  Level Washington Center
10:01PM 35.0244 -77.5094 226° Southwest 492 566 36,000  Level Washington Center
10:02PM 34.9267 -77.6261 224° Southwest 492 566 36,000  Level Washington Center
10:03PM 34.8306 -77.7478 226° Southwest 503 579 36,000  Level Washington Center
10:04PM 34.7364 -77.8717 227° Southwest 503 579 36,000  Level Washington Center
10:06PM 34.5086 -78.1458 225° Southwest 502 578 36,000  Level Jacksonville Center
10:07PM 34.4128 -78.2617 225° Southwest 497 572 36,000  Level Jacksonville Center
10:08PM 34.3147 -78.3775 224° Southwest 497 572 36,000  Level Jacksonville Center
10:09PM 34.2186 -78.4931 225° Southwest 491 565 36,000  Level Jacksonville Center
10:10PM 34.1244 -78.6056 225° Southwest 491 565 36,000  Level Jacksonville Center
10:11PM 34.0383 -78.7075 224° Southwest 491 565 36,000  Level Jacksonville Center
10:12PM 33.9397 -78.8200 223° Southwest 496 571 36,000  Level Jacksonville Center
10:13PM 33.8453 -78.9319 225° Southwest 490 564 36,000  Level Jacksonville Center
10:14PM 33.7464 -79.0461 224° Southwest 490 564 36,000  Level Jacksonville Center
10:15PM 33.6458 -79.1653 225° Southwest 483 556 36,000  Level Jacksonville Center
10:16PM 33.5508 -79.2764 224° Southwest 483 556 36,000  Level Jacksonville Center
10:17PM 33.4539 -79.3900 224° Southwest 483 556 36,000  Level Jacksonville Center
10:18PM 33.3569 -79.5031 224° Southwest 488 562 36,000  Level Jacksonville Center
10:19PM 33.2575 -79.6161 224° Southwest 493 567 36,000  Level Jacksonville Center
10:20PM 33.1622 -79.7289 225° Southwest 493 567 36,000 -300 Level Jacksonville Center
10:21PM 33.0628 -79.8414 223° Southwest 493 567 35,400 -840 Descending Jacksonville Center
10:22PM 32.9653 -79.9511 223° Southwest 488 562 34,400 -1,020 Descending Jacksonville Center
10:23PM 32.8633 -80.0608 222° Southwest 493 567 33,400 -1,020 Descending Jacksonville Center
10:24PM 32.7464 -80.1486 212° Southwest 499 574 32,400 -1,020 Descending Jacksonville Center
10:25PM 32.6294 -80.2433 214° Southwest 505 581 31,400 -1,020 Descending Jacksonville Center
10:26PM 32.5144 -80.3331 213° Southwest 510 587 30,400 -1,020 Descending Jacksonville Center
10:27PM 32.3950 -80.4250 213° Southwest 510 587 29,400 -1,020 Descending Jacksonville Center
10:28PM 32.2758 -80.5164 213° Southwest 510 587 28,400 -1,020 Descending Jacksonville Center
10:29PM 32.1606 -80.6031 212° Southwest 500 575 27,400 -960 Descending Jacksonville Center
10:30PM 32.0492 -80.6917 214° Southwest 500 575 26,500 -960 Descending Jacksonville Center
10:31PM 31.9461 -80.7700 213° Southwest 500 575 25,500 -1,020 Descending Jacksonville Center
10:32PM 31.8203 -80.8533 209° Southwest 495 570 24,500 -1,080 Descending Jacksonville Center
10:33PM 31.7022 -80.9097 202° Southwest 465 535 23,400 -1,560 Descending Jacksonville Center
10:34PM 31.5944 -80.9658 204° Southwest 465 535 21,400 -2,160 Descending Jacksonville Center
10:35PM 31.4700 -81.0267 203° Southwest 453 521 19,100 -2,040 Descending Jacksonville Center
10:36PM 31.3667 -81.0847 206° Southwest 425 489 17,400 -1,980 Descending Jacksonville Center
10:37PM 31.2803 -81.1836 224° Southwest 425 489 15,200 -2,160 Descending Jacksonville Center
10:38PM 31.2019 -81.2750 225° Southwest 413 475 13,100 -2,100 Descending Jacksonville Center
10:39PM 31.1281 -81.3589 224° Southwest 395 455 11,100 -1,680 Descending Jacksonville Center
10:40PM 31.0433 -81.4475 222° Southwest 387 445 9,900 -600 Descending Jacksonville Center
10:41PM 30.9586 -81.5214 217° Southwest 391 450 10,000  Climbing Jacksonville Center
10:42PM 30.8778 -81.5903 216° Southwest 384 442 10,000 -480 Level Jacksonville Center
10:43PM 30.8242 -81.6394 218° Southwest 292 336 9,200 -1,380 Descending Jacksonville Center
10:44PM 30.7494 -81.7008 215° Southwest 303 349 7,500 -1,620 Descending Jacksonville Center
10:45PM 30.6853 -81.7572 217° Southwest 284 327 6,000 -1,620 Descending Jacksonville Center
10:46PM 30.6253 -81.8086 216° Southwest 277 319 4,300 -1,500 Descending Jacksonville Center
10:47PM 30.5461 -81.8311 194° South 244 281 2,900 -1,260 Descending Jacksonville Center